sensor_id;sensor_type;location;lat;lon;timestamp;temperature;humidity
53695;DHT22;39588;51.124;7.190;2022-07-10T00:01:48;13.70;96.00
53695;DHT22;39588;51.124;7.190;2022-07-10T00:04:14;13.70;96.10
53695;DHT22;39588;51.124;7.190;2022-07-10T00:06:40;13.70;96.00
53695;DHT22;39588;51.124;7.190;2022-07-10T00:09:07;13.70;96.00
53695;DHT22;39588;51.124;7.190;2022-07-10T00:11:33;13.70;96.10
53695;DHT22;39588;51.124;7.190;2022-07-10T00:13:59;13.60;95.90
53695;DHT22;39588;51.124;7.190;2022-07-10T00:16:24;13.60;95.90
53695;DHT22;39588;51.124;7.190;2022-07-10T00:18:51;13.60;96.10
53695;DHT22;39588;51.124;7.190;2022-07-10T00:21:16;13.50;96.00
53695;DHT22;39588;51.124;7.190;2022-07-10T00:23:42;13.50;96.00
53695;DHT22;39588;51.124;7.190;2022-07-10T00:26:08;13.40;96.20
53695;DHT22;39588;51.124;7.190;2022-07-10T00:28:34;13.40;96.30
53695;DHT22;39588;51.124;7.190;2022-07-10T00:31:00;13.40;96.40
53695;DHT22;39588;51.124;7.190;2022-07-10T00:33:26;13.40;96.50
53695;DHT22;39588;51.124;7.190;2022-07-10T00:35:53;13.40;96.20
53695;DHT22;39588;51.124;7.190;2022-07-10T00:38:19;13.30;96.20
53695;DHT22;39588;51.124;7.190;2022-07-10T00:40:45;13.30;96.20
53695;DHT22;39588;51.124;7.190;2022-07-10T00:43:10;13.20;96.10
53695;DHT22;39588;51.124;7.190;2022-07-10T00:45:36;13.10;96.30
53695;DHT22;39588;51.124;7.190;2022-07-10T00:48:02;13.10;96.50
53695;DHT22;39588;51.124;7.190;2022-07-10T00:50:29;13.10;96.50
53695;DHT22;39588;51.124;7.190;2022-07-10T00:52:55;13.10;96.50
53695;DHT22;39588;51.124;7.190;2022-07-10T00:55:21;13.10;96.50
53695;DHT22;39588;51.124;7.190;2022-07-10T00:57:47;13.10;96.60
53695;DHT22;39588;51.124;7.190;2022-07-10T01:00:14;13.00;96.50
53695;DHT22;39588;51.124;7.190;2022-07-10T01:02:44;13.10;96.80
53695;DHT22;39588;51.124;7.190;2022-07-10T01:05:10;13.00;96.40
53695;DHT22;39588;51.124;7.190;2022-07-10T01:07:36;13.00;96.70
53695;DHT22;39588;51.124;7.190;2022-07-10T01:10:03;13.00;96.50
53695;DHT22;39588;51.124;7.190;2022-07-10T01:12:29;13.00;96.60
53695;DHT22;39588;51.124;7.190;2022-07-10T01:14:55;13.00;96.80
53695;DHT22;39588;51.124;7.190;2022-07-10T01:17:21;13.00;96.70
53695;DHT22;39588;51.124;7.190;2022-07-10T01:19:47;13.00;96.60
53695;DHT22;39588;51.124;7.190;2022-07-10T01:22:13;12.90;96.70
53695;DHT22;39588;51.124;7.190;2022-07-10T01:24:39;13.00;96.60
53695;DHT22;39588;51.124;7.190;2022-07-10T01:27:05;12.90;96.50
53695;DHT22;39588;51.124;7.190;2022-07-10T01:29:30;12.90;96.60
53695;DHT22;39588;51.124;7.190;2022-07-10T01:31:57;12.90;96.60
53695;DHT22;39588;51.124;7.190;2022-07-10T01:34:26;12.90;96.60
53695;DHT22;39588;51.124;7.190;2022-07-10T01:36:52;12.90;96.70
53695;DHT22;39588;51.124;7.190;2022-07-10T01:39:18;12.90;96.80
53695;DHT22;39588;51.124;7.190;2022-07-10T01:41:43;12.90;96.70
53695;DHT22;39588;51.124;7.190;2022-07-10T01:44:09;12.90;96.70
53695;DHT22;39588;51.124;7.190;2022-07-10T01:46:35;12.90;96.60
53695;DHT22;39588;51.124;7.190;2022-07-10T01:49:00;13.00;96.80
53695;DHT22;39588;51.124;7.190;2022-07-10T01:51:26;12.90;96.60
53695;DHT22;39588;51.124;7.190;2022-07-10T01:53:51;12.90;96.60
53695;DHT22;39588;51.124;7.190;2022-07-10T01:56:17;12.90;96.80
53695;DHT22;39588;51.124;7.190;2022-07-10T01:58:43;13.00;96.60
53695;DHT22;39588;51.124;7.190;2022-07-10T02:01:09;13.00;96.70
53695;DHT22;39588;51.124;7.190;2022-07-10T02:03:35;13.00;96.70
53695;DHT22;39588;51.124;7.190;2022-07-10T02:06:19;13.10;96.80
53695;DHT22;39588;51.124;7.190;2022-07-10T02:08:45;13.10;96.60
53695;DHT22;39588;51.124;7.190;2022-07-10T02:11:11;13.20;96.70
53695;DHT22;39588;51.124;7.190;2022-07-10T02:13:38;13.20;96.60
53695;DHT22;39588;51.124;7.190;2022-07-10T02:16:04;13.20;96.70
53695;DHT22;39588;51.124;7.190;2022-07-10T02:18:29;13.20;96.70
53695;DHT22;39588;51.124;7.190;2022-07-10T02:20:55;13.20;96.70
53695;DHT22;39588;51.124;7.190;2022-07-10T02:23:21;13.20;96.60
53695;DHT22;39588;51.124;7.190;2022-07-10T02:25:47;13.20;96.60
53695;DHT22;39588;51.124;7.190;2022-07-10T02:28:12;13.20;96.80
53695;DHT22;39588;51.124;7.190;2022-07-10T02:30:38;13.20;96.90
53695;DHT22;39588;51.124;7.190;2022-07-10T02:33:04;13.30;96.70
53695;DHT22;39588;51.124;7.190;2022-07-10T02:35:29;13.30;96.90
53695;DHT22;39588;51.124;7.190;2022-07-10T02:37:55;13.20;96.90
53695;DHT22;39588;51.124;7.190;2022-07-10T02:40:21;13.20;96.70
53695;DHT22;39588;51.124;7.190;2022-07-10T02:42:46;13.10;96.90
53695;DHT22;39588;51.124;7.190;2022-07-10T02:45:12;13.00;96.80
53695;DHT22;39588;51.124;7.190;2022-07-10T02:47:37;12.90;96.90
53695;DHT22;39588;51.124;7.190;2022-07-10T02:50:03;12.90;97.30
53695;DHT22;39588;51.124;7.190;2022-07-10T02:52:29;12.90;97.10
53695;DHT22;39588;51.124;7.190;2022-07-10T02:54:56;12.80;97.20
53695;DHT22;39588;51.124;7.190;2022-07-10T02:57:22;12.80;97.20
53695;DHT22;39588;51.124;7.190;2022-07-10T02:59:48;12.70;97.20
53695;DHT22;39588;51.124;7.190;2022-07-10T03:02:14;12.70;97.20
53695;DHT22;39588;51.124;7.190;2022-07-10T03:04:40;12.70;97.60
53695;DHT22;39588;51.124;7.190;2022-07-10T03:07:06;12.70;97.40
53695;DHT22;39588;51.124;7.190;2022-07-10T03:09:31;12.70;97.40
53695;DHT22;39588;51.124;7.190;2022-07-10T03:11:57;12.70;97.20
53695;DHT22;39588;51.124;7.190;2022-07-10T03:14:22;12.60;97.20
53695;DHT22;39588;51.124;7.190;2022-07-10T03:16:48;12.60;97.40
53695;DHT22;39588;51.124;7.190;2022-07-10T03:19:14;12.60;97.30
53695;DHT22;39588;51.124;7.190;2022-07-10T03:21:39;12.60;97.40
53695;DHT22;39588;51.124;7.190;2022-07-10T03:24:05;12.60;97.40
53695;DHT22;39588;51.124;7.190;2022-07-10T03:26:31;12.60;97.50
53695;DHT22;39588;51.124;7.190;2022-07-10T03:28:57;12.60;97.40
53695;DHT22;39588;51.124;7.190;2022-07-10T03:31:22;12.60;97.40
53695;DHT22;39588;51.124;7.190;2022-07-10T03:33:48;12.70;97.50
53695;DHT22;39588;51.124;7.190;2022-07-10T03:36:14;12.80;97.50
53695;DHT22;39588;51.124;7.190;2022-07-10T03:38:40;12.80;97.30
53695;DHT22;39588;51.124;7.190;2022-07-10T03:41:06;12.80;97.30
53695;DHT22;39588;51.124;7.190;2022-07-10T03:43:31;12.80;97.30
53695;DHT22;39588;51.124;7.190;2022-07-10T03:45:58;12.80;97.20
53695;DHT22;39588;51.124;7.190;2022-07-10T03:48:23;12.90;97.30
53695;DHT22;39588;51.124;7.190;2022-07-10T03:50:50;12.90;97.20
53695;DHT22;39588;51.124;7.190;2022-07-10T03:53:16;12.90;97.30
53695;DHT22;39588;51.124;7.190;2022-07-10T03:55:42;12.80;97.40
53695;DHT22;39588;51.124;7.190;2022-07-10T03:58:08;12.90;97.00
53695;DHT22;39588;51.124;7.190;2022-07-10T04:00:33;12.90;97.20
53695;DHT22;39588;51.124;7.190;2022-07-10T04:03:04;13.00;97.20
53695;DHT22;39588;51.124;7.190;2022-07-10T04:05:30;12.90;97.40
53695;DHT22;39588;51.124;7.190;2022-07-10T04:07:56;12.90;97.20
53695;DHT22;39588;51.124;7.190;2022-07-10T04:10:23;12.80;97.20
53695;DHT22;39588;51.124;7.190;2022-07-10T04:12:49;12.80;97.30
53695;DHT22;39588;51.124;7.190;2022-07-10T04:15:15;12.80;97.40
53695;DHT22;39588;51.124;7.190;2022-07-10T04:17:41;12.80;97.60
53695;DHT22;39588;51.124;7.190;2022-07-10T04:20:08;12.90;97.50
53695;DHT22;39588;51.124;7.190;2022-07-10T04:22:34;12.90;97.40
53695;DHT22;39588;51.124;7.190;2022-07-10T04:25:00;12.90;97.50
53695;DHT22;39588;51.124;7.190;2022-07-10T04:27:25;12.90;97.50
53695;DHT22;39588;51.124;7.190;2022-07-10T04:29:51;13.00;97.50
53695;DHT22;39588;51.124;7.190;2022-07-10T04:32:17;13.00;97.30
53695;DHT22;39588;51.124;7.190;2022-07-10T04:34:42;13.00;97.40
53695;DHT22;39588;51.124;7.190;2022-07-10T04:37:08;12.90;97.30
53695;DHT22;39588;51.124;7.190;2022-07-10T04:39:35;13.00;97.50
53695;DHT22;39588;51.124;7.190;2022-07-10T04:42:01;13.00;97.30
53695;DHT22;39588;51.124;7.190;2022-07-10T04:44:28;13.10;97.40
53695;DHT22;39588;51.124;7.190;2022-07-10T04:46:54;13.10;97.30
53695;DHT22;39588;51.124;7.190;2022-07-10T04:49:20;13.10;97.30
53695;DHT22;39588;51.124;7.190;2022-07-10T04:51:45;13.20;97.20
53695;DHT22;39588;51.124;7.190;2022-07-10T04:54:11;13.30;97.10
53695;DHT22;39588;51.124;7.190;2022-07-10T04:56:37;13.50;97.10
53695;DHT22;39588;51.124;7.190;2022-07-10T04:59:02;13.60;97.10
53695;DHT22;39588;51.124;7.190;2022-07-10T05:01:28;13.70;97.10
53695;DHT22;39588;51.124;7.190;2022-07-10T05:03:54;13.80;96.90
53695;DHT22;39588;51.124;7.190;2022-07-10T05:06:19;13.90;96.80
53695;DHT22;39588;51.124;7.190;2022-07-10T05:08:45;14.00;96.90
53695;DHT22;39588;51.124;7.190;2022-07-10T05:11:11;13.90;96.60
53695;DHT22;39588;51.124;7.190;2022-07-10T05:13:37;13.90;96.80
53695;DHT22;39588;51.124;7.190;2022-07-10T05:16:06;14.00;96.70
53695;DHT22;39588;51.124;7.190;2022-07-10T05:18:32;13.90;96.80
53695;DHT22;39588;51.124;7.190;2022-07-10T05:20:57;13.90;96.70
53695;DHT22;39588;51.124;7.190;2022-07-10T05:23:23;13.90;97.10
53695;DHT22;39588;51.124;7.190;2022-07-10T05:25:49;13.80;97.00
53695;DHT22;39588;51.124;7.190;2022-07-10T05:28:15;14.00;97.10
53695;DHT22;39588;51.124;7.190;2022-07-10T05:30:41;14.00;96.90
53695;DHT22;39588;51.124;7.190;2022-07-10T05:33:07;14.00;96.90
53695;DHT22;39588;51.124;7.190;2022-07-10T05:35:33;14.10;96.90
53695;DHT22;39588;51.124;7.190;2022-07-10T05:37:59;14.30;96.70
53695;DHT22;39588;51.124;7.190;2022-07-10T05:40:25;14.40;96.70
53695;DHT22;39588;51.124;7.190;2022-07-10T05:42:51;14.30;96.40
53695;DHT22;39588;51.124;7.190;2022-07-10T05:45:17;14.20;96.70
53695;DHT22;39588;51.124;7.190;2022-07-10T05:47:42;14.10;96.70
53695;DHT22;39588;51.124;7.190;2022-07-10T05:50:10;14.00;96.90
53695;DHT22;39588;51.124;7.190;2022-07-10T05:52:36;14.00;97.00
53695;DHT22;39588;51.124;7.190;2022-07-10T05:55:03;14.20;96.80
53695;DHT22;39588;51.124;7.190;2022-07-10T05:57:30;14.40;96.80
53695;DHT22;39588;51.124;7.190;2022-07-10T05:59:57;14.40;96.50
53695;DHT22;39588;51.124;7.190;2022-07-10T06:02:22;14.30;96.50
53695;DHT22;39588;51.124;7.190;2022-07-10T06:04:48;14.30;96.60
53695;DHT22;39588;51.124;7.190;2022-07-10T06:07:14;14.30;96.80
53695;DHT22;39588;51.124;7.190;2022-07-10T06:09:40;14.40;96.60
53695;DHT22;39588;51.124;7.190;2022-07-10T06:12:06;14.50;96.50
53695;DHT22;39588;51.124;7.190;2022-07-10T06:14:32;14.50;96.40
53695;DHT22;39588;51.124;7.190;2022-07-10T06:16:57;14.40;96.30
53695;DHT22;39588;51.124;7.190;2022-07-10T06:19:23;14.40;96.50
53695;DHT22;39588;51.124;7.190;2022-07-10T06:21:49;14.50;96.40
53695;DHT22;39588;51.124;7.190;2022-07-10T06:24:34;14.60;96.30
53695;DHT22;39588;51.124;7.190;2022-07-10T06:27:00;14.60;96.20
53695;DHT22;39588;51.124;7.190;2022-07-10T06:29:25;14.70;96.20
53695;DHT22;39588;51.124;7.190;2022-07-10T06:31:51;14.80;96.20
53695;DHT22;39588;51.124;7.190;2022-07-10T06:34:17;14.80;96.20
53695;DHT22;39588;51.124;7.190;2022-07-10T06:36:42;14.90;96.10
53695;DHT22;39588;51.124;7.190;2022-07-10T06:39:08;15.50;95.90
53695;DHT22;39588;51.124;7.190;2022-07-10T06:41:33;15.80;95.30
53695;DHT22;39588;51.124;7.190;2022-07-10T06:43:59;15.80;95.10
53695;DHT22;39588;51.124;7.190;2022-07-10T06:46:26;15.70;95.10
53695;DHT22;39588;51.124;7.190;2022-07-10T06:48:52;15.90;95.20
53695;DHT22;39588;51.124;7.190;2022-07-10T06:51:18;15.90;94.70
53695;DHT22;39588;51.124;7.190;2022-07-10T06:53:44;15.80;94.80
53695;DHT22;39588;51.124;7.190;2022-07-10T06:56:10;16.00;95.00
53695;DHT22;39588;51.124;7.190;2022-07-10T06:58:36;16.10;94.80
53695;DHT22;39588;51.124;7.190;2022-07-10T07:01:01;16.00;94.60
53695;DHT22;39588;51.124;7.190;2022-07-10T07:03:27;15.90;94.80
53695;DHT22;39588;51.124;7.190;2022-07-10T07:05:53;16.00;94.80
53695;DHT22;39588;51.124;7.190;2022-07-10T07:08:18;16.10;94.70
53695;DHT22;39588;51.124;7.190;2022-07-10T07:10:44;16.30;94.80
53695;DHT22;39588;51.124;7.190;2022-07-10T07:13:10;16.40;94.60
53695;DHT22;39588;51.124;7.190;2022-07-10T07:15:35;16.30;94.40
53695;DHT22;39588;51.124;7.190;2022-07-10T07:18:06;16.10;94.30
53695;DHT22;39588;51.124;7.190;2022-07-10T07:20:37;15.80;94.60
53695;DHT22;39588;51.124;7.190;2022-07-10T07:23:22;15.50;94.70
53695;DHT22;39588;51.124;7.190;2022-07-10T07:25:48;15.30;94.90
53695;DHT22;39588;51.124;7.190;2022-07-10T07:28:18;15.10;95.10
53695;DHT22;39588;51.124;7.190;2022-07-10T07:30:46;15.00;95.50
53695;DHT22;39588;51.124;7.190;2022-07-10T07:33:12;15.00;95.70
53695;DHT22;39588;51.124;7.190;2022-07-10T07:35:38;14.90;95.70
53695;DHT22;39588;51.124;7.190;2022-07-10T07:38:04;15.00;95.90
53695;DHT22;39588;51.124;7.190;2022-07-10T07:40:31;15.20;95.70
53695;DHT22;39588;51.124;7.190;2022-07-10T07:42:57;15.30;95.30
53695;DHT22;39588;51.124;7.190;2022-07-10T07:45:23;15.20;95.10
53695;DHT22;39588;51.124;7.190;2022-07-10T07:47:51;15.30;95.20
53695;DHT22;39588;51.124;7.190;2022-07-10T07:50:19;15.30;95.00
53695;DHT22;39588;51.124;7.190;2022-07-10T07:52:45;15.30;94.90
53695;DHT22;39588;51.124;7.190;2022-07-10T07:55:12;15.40;95.00
53695;DHT22;39588;51.124;7.190;2022-07-10T07:57:40;15.40;95.00
53695;DHT22;39588;51.124;7.190;2022-07-10T08:00:06;15.50;94.90
53695;DHT22;39588;51.124;7.190;2022-07-10T08:02:34;15.50;94.90
53695;DHT22;39588;51.124;7.190;2022-07-10T08:04:59;15.60;95.10
53695;DHT22;39588;51.124;7.190;2022-07-10T08:07:41;15.60;94.90
53695;DHT22;39588;51.124;7.190;2022-07-10T08:10:08;15.60;94.50
53695;DHT22;39588;51.124;7.190;2022-07-10T08:12:34;15.50;94.60
53695;DHT22;39588;51.124;7.190;2022-07-10T08:15:00;15.40;94.70
53695;DHT22;39588;51.124;7.190;2022-07-10T08:17:26;15.40;94.80
53695;DHT22;39588;51.124;7.190;2022-07-10T08:19:52;15.40;94.90
53695;DHT22;39588;51.124;7.190;2022-07-10T08:22:18;15.40;94.80
53695;DHT22;39588;51.124;7.190;2022-07-10T08:24:44;15.40;94.80
53695;DHT22;39588;51.124;7.190;2022-07-10T08:27:10;15.30;94.80
53695;DHT22;39588;51.124;7.190;2022-07-10T08:29:35;15.20;94.90
53695;DHT22;39588;51.124;7.190;2022-07-10T08:32:01;15.30;95.10
53695;DHT22;39588;51.124;7.190;2022-07-10T08:34:27;15.50;95.10
53695;DHT22;39588;51.124;7.190;2022-07-10T08:36:55;15.60;94.90
53695;DHT22;39588;51.124;7.190;2022-07-10T08:39:21;15.80;94.80
53695;DHT22;39588;51.124;7.190;2022-07-10T08:41:47;15.90;94.80
53695;DHT22;39588;51.124;7.190;2022-07-10T08:44:16;15.90;94.90
53695;DHT22;39588;51.124;7.190;2022-07-10T08:46:43;16.00;95.00
53695;DHT22;39588;51.124;7.190;2022-07-10T08:49:10;16.00;95.00
53695;DHT22;39588;51.124;7.190;2022-07-10T08:51:50;15.80;95.10
53695;DHT22;39588;51.124;7.190;2022-07-10T08:54:19;15.60;95.50
53695;DHT22;39588;51.124;7.190;2022-07-10T08:56:47;15.80;95.80
53695;DHT22;39588;51.124;7.190;2022-07-10T08:59:14;15.90;95.60
53695;DHT22;39588;51.124;7.190;2022-07-10T09:01:40;16.10;95.60
53695;DHT22;39588;51.124;7.190;2022-07-10T09:04:06;16.40;95.40
53695;DHT22;39588;51.124;7.190;2022-07-10T09:06:32;16.60;95.20
53695;DHT22;39588;51.124;7.190;2022-07-10T09:11:28;16.40;95.40
53695;DHT22;39588;51.124;7.190;2022-07-10T09:13:59;16.50;95.50
53695;DHT22;39588;51.124;7.190;2022-07-10T09:16:30;16.60;95.30
53695;DHT22;39588;51.124;7.190;2022-07-10T09:18:56;16.50;95.40
53695;DHT22;39588;51.124;7.190;2022-07-10T09:21:22;16.60;95.50
53695;DHT22;39588;51.124;7.190;2022-07-10T09:23:48;16.50;95.50
53695;DHT22;39588;51.124;7.190;2022-07-10T09:26:15;16.50;95.50
53695;DHT22;39588;51.124;7.190;2022-07-10T09:28:41;16.40;95.50
53695;DHT22;39588;51.124;7.190;2022-07-10T09:31:06;16.50;95.70
53695;DHT22;39588;51.124;7.190;2022-07-10T09:33:32;16.30;95.70
53695;DHT22;39588;51.124;7.190;2022-07-10T09:41:26;16.40;96.10
53695;DHT22;39588;51.124;7.190;2022-07-10T09:43:58;16.50;96.00
53695;DHT22;39588;51.124;7.190;2022-07-10T09:46:28;16.60;96.10
53695;DHT22;39588;51.124;7.190;2022-07-10T09:51:34;16.80;95.90
53695;DHT22;39588;51.124;7.190;2022-07-10T09:54:01;16.90;95.90
53695;DHT22;39588;51.124;7.190;2022-07-10T09:56:33;17.10;95.80
53695;DHT22;39588;51.124;7.190;2022-07-10T09:59:00;17.10;95.70
53695;DHT22;39588;51.124;7.190;2022-07-10T10:01:27;17.10;95.70
53695;DHT22;39588;51.124;7.190;2022-07-10T10:03:58;17.00;95.70
53695;DHT22;39588;51.124;7.190;2022-07-10T10:06:27;16.80;95.70
53695;DHT22;39588;51.124;7.190;2022-07-10T10:11:21;16.40;96.20
53695;DHT22;39588;51.124;7.190;2022-07-10T10:13:49;16.30;96.30
53695;DHT22;39588;51.124;7.190;2022-07-10T10:16:15;16.30;96.50
53695;DHT22;39588;51.124;7.190;2022-07-10T10:18:43;16.30;96.60
53695;DHT22;39588;51.124;7.190;2022-07-10T10:21:27;16.40;96.70
53695;DHT22;39588;51.124;7.190;2022-07-10T10:23:54;16.30;96.50
53695;DHT22;39588;51.124;7.190;2022-07-10T10:26:22;16.10;96.70
53695;DHT22;39588;51.124;7.190;2022-07-10T10:28:50;16.00;96.90
53695;DHT22;39588;51.124;7.190;2022-07-10T10:31:16;15.90;97.20
53695;DHT22;39588;51.124;7.190;2022-07-10T10:33:43;15.70;97.10
53695;DHT22;39588;51.124;7.190;2022-07-10T10:36:15;15.60;97.30
53695;DHT22;39588;51.124;7.190;2022-07-10T10:38:59;15.50;97.50
53695;DHT22;39588;51.124;7.190;2022-07-10T10:49:20;15.90;97.20
53695;DHT22;39588;51.124;7.190;2022-07-10T10:54:22;15.90;97.30
53695;DHT22;39588;51.124;7.190;2022-07-10T10:57:16;16.00;97.50
53695;DHT22;39588;51.124;7.190;2022-07-10T10:59:53;16.10;97.30
53695;DHT22;39588;51.124;7.190;2022-07-10T11:02:31;16.00;97.40
53695;DHT22;39588;51.124;7.190;2022-07-10T11:15:46;16.10;97.50
53695;DHT22;39588;51.124;7.190;2022-07-10T11:18:17;16.20;97.60
53695;DHT22;39588;51.124;7.190;2022-07-10T11:20:51;16.10;97.50
53695;DHT22;39588;51.124;7.190;2022-07-10T11:23:37;16.10;97.50
53695;DHT22;39588;51.124;7.190;2022-07-10T11:26:10;16.10;97.60
53695;DHT22;39588;51.124;7.190;2022-07-10T11:28:54;16.30;97.50
53695;DHT22;39588;51.124;7.190;2022-07-10T11:31:21;16.60;97.40
53695;DHT22;39588;51.124;7.190;2022-07-10T11:33:49;17.00;97.00
53695;DHT22;39588;51.124;7.190;2022-07-10T11:36:34;17.10;96.80
53695;DHT22;39588;51.124;7.190;2022-07-10T11:39:07;17.30;96.70
53695;DHT22;39588;51.124;7.190;2022-07-10T11:41:41;17.30;96.60
53695;DHT22;39588;51.124;7.190;2022-07-10T11:44:13;17.30;96.60
53695;DHT22;39588;51.124;7.190;2022-07-10T11:46:40;17.20;96.60
53695;DHT22;39588;51.124;7.190;2022-07-10T11:49:07;17.10;96.90
53695;DHT22;39588;51.124;7.190;2022-07-10T11:51:36;16.90;97.10
53695;DHT22;39588;51.124;7.190;2022-07-10T11:54:12;16.80;97.40
53695;DHT22;39588;51.124;7.190;2022-07-10T11:56:52;16.70;97.70
53695;DHT22;39588;51.124;7.190;2022-07-10T11:59:23;16.70;97.80
53695;DHT22;39588;51.124;7.190;2022-07-10T12:01:52;16.90;97.90
53695;DHT22;39588;51.124;7.190;2022-07-10T12:04:20;17.30;97.90
53695;DHT22;39588;51.124;7.190;2022-07-10T12:06:51;17.70;97.70
53695;DHT22;39588;51.124;7.190;2022-07-10T12:09:19;18.10;97.50
53695;DHT22;39588;51.124;7.190;2022-07-10T12:12:05;18.10;97.30
53695;DHT22;39588;51.124;7.190;2022-07-10T12:14:31;17.90;97.10
53695;DHT22;39588;51.124;7.190;2022-07-10T12:16:58;17.60;97.20
53695;DHT22;39588;51.124;7.190;2022-07-10T12:19:30;17.40;97.40
53695;DHT22;39588;51.124;7.190;2022-07-10T12:21:58;17.20;97.50
53695;DHT22;39588;51.124;7.190;2022-07-10T12:24:25;17.00;97.70
53695;DHT22;39588;51.124;7.190;2022-07-10T12:26:52;16.80;98.10
53695;DHT22;39588;51.124;7.190;2022-07-10T12:29:26;16.60;98.20
53695;DHT22;39588;51.124;7.190;2022-07-10T12:31:59;16.60;98.40
53695;DHT22;39588;51.124;7.190;2022-07-10T12:34:35;16.50;98.50
53695;DHT22;39588;51.124;7.190;2022-07-10T12:37:09;16.30;98.70
53695;DHT22;39588;51.124;7.190;2022-07-10T12:39:46;16.10;99.00
53695;DHT22;39588;51.124;7.190;2022-07-10T12:42:13;16.00;99.40
53695;DHT22;39588;51.124;7.190;2022-07-10T12:44:43;16.00;99.50
53695;DHT22;39588;51.124;7.190;2022-07-10T12:47:16;16.20;99.50
53695;DHT22;39588;51.124;7.190;2022-07-10T12:49:55;16.50;99.40
53695;DHT22;39588;51.124;7.190;2022-07-10T12:52:26;16.60;99.10
53695;DHT22;39588;51.124;7.190;2022-07-10T13:00:20;17.00;99.20
53695;DHT22;39588;51.124;7.190;2022-07-10T13:02:47;17.10;99.00
53695;DHT22;39588;51.124;7.190;2022-07-10T13:10:35;16.70;99.10
53695;DHT22;39588;51.124;7.190;2022-07-10T13:13:03;16.60;99.40
53695;DHT22;39588;51.124;7.190;2022-07-10T13:15:29;16.60;99.40
53695;DHT22;39588;51.124;7.190;2022-07-10T13:17:56;16.60;99.40
53695;DHT22;39588;51.124;7.190;2022-07-10T13:20:22;16.50;99.40
53695;DHT22;39588;51.124;7.190;2022-07-10T13:22:48;16.40;99.40
53695;DHT22;39588;51.124;7.190;2022-07-10T13:25:13;16.30;99.60
53695;DHT22;39588;51.124;7.190;2022-07-10T13:27:39;16.30;99.70
53695;DHT22;39588;51.124;7.190;2022-07-10T13:30:05;16.30;99.70
53695;DHT22;39588;51.124;7.190;2022-07-10T13:32:31;16.30;99.70
53695;DHT22;39588;51.124;7.190;2022-07-10T13:34:57;16.30;99.70
53695;DHT22;39588;51.124;7.190;2022-07-10T13:37:23;16.20;99.80
53695;DHT22;39588;51.124;7.190;2022-07-10T13:39:48;16.20;99.90
53695;DHT22;39588;51.124;7.190;2022-07-10T13:42:14;16.30;99.90
53695;DHT22;39588;51.124;7.190;2022-07-10T13:44:40;16.40;99.90
53695;DHT22;39588;51.124;7.190;2022-07-10T13:47:05;16.50;99.90
53695;DHT22;39588;51.124;7.190;2022-07-10T13:49:31;16.60;99.90
53695;DHT22;39588;51.124;7.190;2022-07-10T13:51:57;16.70;99.90
53695;DHT22;39588;51.124;7.190;2022-07-10T13:54:23;16.70;99.80
53695;DHT22;39588;51.124;7.190;2022-07-10T13:56:49;16.80;99.70
53695;DHT22;39588;51.124;7.190;2022-07-10T13:59:15;16.80;99.80
53695;DHT22;39588;51.124;7.190;2022-07-10T14:01:40;17.10;99.70
53695;DHT22;39588;51.124;7.190;2022-07-10T14:04:06;17.40;99.40
53695;DHT22;39588;51.124;7.190;2022-07-10T14:06:32;17.70;99.20
53695;DHT22;39588;51.124;7.190;2022-07-10T14:08:58;17.90;99.10
53695;DHT22;39588;51.124;7.190;2022-07-10T14:11:23;18.00;99.30
53695;DHT22;39588;51.124;7.190;2022-07-10T14:13:49;18.00;99.00
53695;DHT22;39588;51.124;7.190;2022-07-10T14:16:15;17.70;98.90
53695;DHT22;39588;51.124;7.190;2022-07-10T14:18:40;17.50;99.00
53695;DHT22;39588;51.124;7.190;2022-07-10T14:21:11;17.50;99.20
53695;DHT22;39588;51.124;7.190;2022-07-10T14:23:40;17.40;99.20
53695;DHT22;39588;51.124;7.190;2022-07-10T14:26:07;17.30;99.20
53695;DHT22;39588;51.124;7.190;2022-07-10T14:28:33;17.20;99.30
53695;DHT22;39588;51.124;7.190;2022-07-10T14:31:01;17.20;99.30
53695;DHT22;39588;51.124;7.190;2022-07-10T14:33:32;17.10;99.30
53695;DHT22;39588;51.124;7.190;2022-07-10T14:35:59;17.10;99.40
53695;DHT22;39588;51.124;7.190;2022-07-10T14:38:25;17.30;99.40
53695;DHT22;39588;51.124;7.190;2022-07-10T14:40:51;17.40;99.40
53695;DHT22;39588;51.124;7.190;2022-07-10T14:43:21;17.30;99.30
53695;DHT22;39588;51.124;7.190;2022-07-10T14:45:48;17.30;99.50
53695;DHT22;39588;51.124;7.190;2022-07-10T14:48:14;17.20;99.50
53695;DHT22;39588;51.124;7.190;2022-07-10T14:50:39;17.20;99.60
53695;DHT22;39588;51.124;7.190;2022-07-10T14:53:06;17.10;99.70
53695;DHT22;39588;51.124;7.190;2022-07-10T14:55:33;17.20;99.70
53695;DHT22;39588;51.124;7.190;2022-07-10T14:57:59;17.50;99.60
53695;DHT22;39588;51.124;7.190;2022-07-10T15:00:25;17.90;99.40
53695;DHT22;39588;51.124;7.190;2022-07-10T15:02:50;18.30;99.30
53695;DHT22;39588;51.124;7.190;2022-07-10T15:05:16;18.50;99.20
53695;DHT22;39588;51.124;7.190;2022-07-10T15:07:41;18.70;98.90
53695;DHT22;39588;51.124;7.190;2022-07-10T15:10:07;18.80;99.10
53695;DHT22;39588;51.124;7.190;2022-07-10T15:12:37;18.90;98.80
53695;DHT22;39588;51.124;7.190;2022-07-10T15:15:05;18.80;98.60
53695;DHT22;39588;51.124;7.190;2022-07-10T15:17:34;18.60;98.70
53695;DHT22;39588;51.124;7.190;2022-07-10T15:20:00;18.30;98.60
53695;DHT22;39588;51.124;7.190;2022-07-10T15:22:25;18.00;98.90
53695;DHT22;39588;51.124;7.190;2022-07-10T15:24:51;17.70;99.10
53695;DHT22;39588;51.124;7.190;2022-07-10T15:27:17;17.60;99.40
53695;DHT22;39588;51.124;7.190;2022-07-10T15:29:42;17.50;99.50
53695;DHT22;39588;51.124;7.190;2022-07-10T15:32:08;17.30;99.60
53695;DHT22;39588;51.124;7.190;2022-07-10T15:34:35;17.30;99.70
53695;DHT22;39588;51.124;7.190;2022-07-10T15:37:01;17.20;99.80
53695;DHT22;39588;51.124;7.190;2022-07-10T15:39:26;17.20;99.90
53695;DHT22;39588;51.124;7.190;2022-07-10T15:41:52;17.40;99.90
53695;DHT22;39588;51.124;7.190;2022-07-10T15:44:17;17.70;99.80
53695;DHT22;39588;51.124;7.190;2022-07-10T15:46:43;18.00;99.60
53695;DHT22;39588;51.124;7.190;2022-07-10T15:49:08;18.30;99.50
53695;DHT22;39588;51.124;7.190;2022-07-10T15:51:37;18.70;99.30
53695;DHT22;39588;51.124;7.190;2022-07-10T15:54:02;18.90;98.70
53695;DHT22;39588;51.124;7.190;2022-07-10T15:56:28;19.00;98.40
53695;DHT22;39588;51.124;7.190;2022-07-10T15:58:54;19.10;98.30
53695;DHT22;39588;51.124;7.190;2022-07-10T16:01:19;19.10;97.90
53695;DHT22;39588;51.124;7.190;2022-07-10T16:03:45;19.00;97.80
53695;DHT22;39588;51.124;7.190;2022-07-10T16:06:12;18.80;98.00
53695;DHT22;39588;51.124;7.190;2022-07-10T16:08:38;18.60;98.20
53695;DHT22;39588;51.124;7.190;2022-07-10T16:11:04;18.40;98.00
53695;DHT22;39588;51.124;7.190;2022-07-10T16:13:30;18.20;98.30
53695;DHT22;39588;51.124;7.190;2022-07-10T16:15:59;18.10;98.50